Belfast, New York
Current Conditions -  °F | °C
As of 8:35 PM on Tuesday 21 Oct 2014 (Local Time) from KOLE Reporting Station
Light Rain Light Rain  
Wind Chill:   Ceiling: 500
Heat Index:   Visibility: 7mi
Dew Point:   Wind: 5mph
Humidity: 100%   Direction: 20°NNE
Pressure: 29.96"   Gusts: NA
Location:  42.34°N, 78.11°W
Report Text: KOLE 220035Z AUTO 02004KT 7SM -RA OVC005 07/07 A2996 RMK AO2
Loading
Personal Weather Stations






























Interactive Weather Map
Tropical Storm Tracking
New forecast layout! Learn more

10-Day Weather Forecast

Advertisements
Track Severe Weather on mobile